createdAt,value
2023-01-12T00:00:14.460Z,50.877201
2023-01-12T00:01:14.459Z,50.877213
2023-01-12T00:02:14.492Z,50.877213
2023-01-12T00:03:14.405Z,50.877220
2023-01-12T00:04:14.471Z,50.877220
2023-01-12T00:05:14.399Z,50.877213
2023-01-12T00:06:14.368Z,50.877220
2023-01-12T00:07:14.449Z,50.877201
2023-01-12T00:08:14.334Z,50.877216
2023-01-12T00:09:14.358Z,50.877209
2023-01-12T00:10:14.318Z,50.877205
2023-01-12T00:11:14.349Z,50.877193
2023-01-12T00:12:14.307Z,50.877205
2023-01-12T00:13:14.291Z,50.877224
2023-01-12T00:14:14.311Z,50.877186
2023-01-12T00:15:14.260Z,50.877224
2023-01-12T00:16:14.344Z,50.877228
2023-01-12T00:17:14.262Z,50.877262
2023-01-12T00:18:14.235Z,50.877239
2023-01-12T00:19:14.225Z,50.877274
2023-01-12T00:20:14.244Z,50.877254
2023-01-12T00:21:14.233Z,50.877262
2023-01-12T00:22:14.210Z,50.877258
2023-01-12T00:23:14.215Z,50.877216
2023-01-12T00:24:14.184Z,50.877243
2023-01-12T00:25:14.154Z,50.877258
2023-01-12T00:26:14.174Z,50.877232
2023-01-12T00:27:14.197Z,50.877228
2023-01-12T00:28:14.141Z,50.877232
2023-01-12T00:29:14.167Z,50.877220
2023-01-12T00:30:14.130Z,50.877239
2023-01-12T00:31:14.182Z,50.877247
2023-01-12T00:32:14.133Z,50.877220
2023-01-12T00:33:14.085Z,50.877251
2023-01-12T00:34:14.214Z,50.877232
2023-01-12T00:35:14.096Z,50.877209
2023-01-12T00:36:14.087Z,50.877182
2023-01-12T00:37:14.070Z,50.877232
2023-01-12T00:38:14.043Z,50.877174
2023-01-12T00:39:14.032Z,50.877216
2023-01-12T00:40:14.057Z,50.877247
2023-01-12T00:41:14.011Z,50.877247
2023-01-12T00:42:14.003Z,50.877209
2023-01-12T00:43:14.036Z,50.877247
2023-01-12T00:44:14.000Z,50.877266
2023-01-12T00:45:14.009Z,50.877205
2023-01-12T00:46:13.961Z,50.877197
2023-01-12T00:47:13.977Z,50.877201
2023-01-12T00:48:13.953Z,50.877228
2023-01-12T00:49:13.931Z,50.877243
2023-01-12T00:50:14.004Z,50.877239
2023-01-12T00:51:13.929Z,50.877220
2023-01-12T00:52:24.897Z,50.877235
2023-01-12T00:53:15.957Z,50.877220
2023-01-12T00:54:13.889Z,50.877193
2023-01-12T00:55:13.910Z,50.877163
2023-01-12T00:56:13.930Z,50.877216
2023-01-12T00:57:13.860Z,50.877213
2023-01-12T00:58:13.859Z,50.877213
2023-01-12T00:59:13.824Z,50.877197
2023-01-12T01:00:13.828Z,50.877144
2023-01-12T01:01:13.959Z,50.877174
2023-01-12T01:02:13.989Z,50.877209
2023-01-12T01:03:13.830Z,50.877224
2023-01-12T01:04:13.779Z,50.877228
2023-01-12T01:05:13.848Z,50.877224
2023-01-12T01:06:13.779Z,50.877235
2023-01-12T01:07:13.760Z,50.877201
2023-01-12T01:08:13.797Z,50.877239
2023-01-12T01:09:13.753Z,50.877205
2023-01-12T01:10:13.726Z,50.877251
2023-01-12T01:11:13.753Z,50.877232
2023-01-12T01:12:13.732Z,50.877274
2023-01-12T01:13:13.777Z,50.877243
2023-01-12T01:14:13.731Z,50.877205
2023-01-12T01:15:13.687Z,50.877193
2023-01-12T01:16:13.767Z,50.877220
2023-01-12T01:17:14.671Z,50.877224
2023-01-12T01:18:13.654Z,50.877213
2023-01-12T01:19:13.666Z,50.877197
2023-01-12T01:20:13.671Z,50.877220
2023-01-12T01:21:13.657Z,50.877213
2023-01-12T01:22:13.613Z,50.877235
2023-01-12T01:23:13.651Z,50.877213
2023-01-12T01:24:13.589Z,50.877197
2023-01-12T01:25:13.623Z,50.877190
2023-01-12T01:26:13.632Z,50.877220
2023-01-12T01:27:13.553Z,50.877209
2023-01-12T01:28:13.552Z,50.877243
2023-01-12T01:29:13.550Z,50.877235
2023-01-12T01:30:13.555Z,50.877216
2023-01-12T01:31:13.521Z,50.877224
2023-01-12T01:32:13.560Z,50.877197
2023-01-12T01:33:13.497Z,50.877193
2023-01-12T01:34:13.499Z,50.877201
2023-01-12T01:40:33.060Z,50.877281
2023-01-12T01:41:33.047Z,50.877213
2023-01-12T01:42:33.066Z,50.877201
2023-01-12T01:43:33.026Z,50.877178
2023-01-12T01:44:33.028Z,50.877144
2023-01-12T01:45:34.014Z,50.877224
2023-01-12T01:46:33.004Z,50.877205
2023-01-12T01:47:33.003Z,50.877201
2023-01-12T01:48:32.989Z,50.877228
2023-01-12T01:49:32.975Z,50.877171
2023-01-12T01:50:32.971Z,50.877174
2023-01-12T01:51:32.960Z,50.877193
2023-01-12T01:52:32.953Z,50.877209
2023-01-12T01:53:32.933Z,50.877201
2023-01-12T01:54:32.939Z,50.877171
2023-01-12T01:55:32.913Z,50.877201
2023-01-12T01:56:32.904Z,50.877201
2023-01-12T01:57:32.903Z,50.877239
2023-01-12T01:58:32.876Z,50.877090
2023-01-12T01:59:32.909Z,50.877151
2023-01-12T02:00:32.887Z,50.877151
2023-01-12T02:01:32.929Z,50.877201
2023-01-12T02:02:32.844Z,50.877163
2023-01-12T02:03:36.623Z,50.877163
2023-01-12T02:04:33.813Z,50.877144
2023-01-12T02:05:32.840Z,50.877106
2023-01-12T02:06:32.819Z,50.877136
2023-01-12T02:07:32.803Z,50.877171
2023-01-12T02:08:32.782Z,50.877251
2023-01-12T02:09:32.777Z,50.877201
2023-01-12T02:10:32.785Z,50.877216
2023-01-12T02:11:32.756Z,50.877171
2023-01-12T02:12:32.736Z,50.877178
2023-01-12T02:13:32.730Z,50.877193
2023-01-12T02:14:32.732Z,50.877155
2023-01-12T02:15:32.743Z,50.877148
2023-01-12T02:16:32.707Z,50.877178
2023-01-12T02:17:32.697Z,50.877171
2023-01-12T02:18:32.688Z,50.877144
2023-01-12T02:19:32.667Z,50.877178
2023-01-12T02:20:32.670Z,50.877205
2023-01-12T02:21:32.670Z,50.877182
2023-01-12T02:22:33.643Z,50.877159
2023-01-12T02:23:32.651Z,50.877144
2023-01-12T02:24:32.624Z,50.877201
2023-01-12T02:25:32.627Z,50.877163
2023-01-12T02:26:32.594Z,50.877159
2023-01-12T02:27:32.619Z,50.877190
2023-01-12T02:28:32.587Z,50.877171
2023-01-12T02:29:32.586Z,50.877102
2023-01-12T02:30:32.562Z,50.877163
2023-01-12T02:31:32.596Z,50.877110
2023-01-12T02:32:32.564Z,50.877148
2023-01-12T02:33:32.554Z,50.877148
2023-01-12T02:34:32.593Z,50.877174
2023-01-12T02:35:32.522Z,50.877182
2023-01-12T02:36:32.517Z,50.877232
2023-01-12T02:37:32.488Z,50.877201
2023-01-12T02:38:32.477Z,50.877174
2023-01-12T02:39:33.469Z,50.877178
2023-01-12T02:40:32.594Z,50.877182
2023-01-12T02:41:32.451Z,50.877151
2023-01-12T02:42:32.440Z,50.877090
2023-01-12T02:43:32.432Z,50.877155
2023-01-12T02:44:32.415Z,50.877167
2023-01-12T02:45:32.409Z,50.877197
2023-01-12T02:46:33.434Z,50.877144
2023-01-12T02:47:32.383Z,50.877171
2023-01-12T02:48:32.371Z,50.877155
2023-01-12T02:49:32.383Z,50.877171
2023-01-12T02:50:32.376Z,50.877132
2023-01-12T02:51:32.406Z,50.877163
2023-01-12T02:52:32.378Z,50.877136
2023-01-12T02:53:32.333Z,50.877171
2023-01-12T02:54:32.327Z,50.877113
2023-01-12T02:55:32.323Z,50.877174
2023-01-12T02:56:32.327Z,50.877197
2023-01-12T02:57:32.301Z,50.877205
2023-01-12T02:58:32.285Z,50.877167
2023-01-12T02:59:32.281Z,50.877121
2023-01-12T03:00:32.270Z,50.877159
2023-01-12T03:01:32.337Z,50.877178
2023-01-12T03:02:32.249Z,50.877174
2023-01-12T03:03:32.273Z,50.877220
2023-01-12T03:04:32.234Z,50.877190
2023-01-12T03:05:32.221Z,50.877216
2023-01-12T03:06:32.234Z,50.877140
2023-01-12T03:07:32.201Z,50.877132
2023-01-12T03:08:32.172Z,50.877205
2023-01-12T03:09:33.188Z,50.877155
2023-01-12T03:10:32.194Z,50.877129
2023-01-12T03:11:32.156Z,50.877090
2023-01-12T03:12:32.238Z,50.877171
2023-01-12T03:13:32.137Z,50.877193
2023-01-12T03:14:32.130Z,50.877136
2023-01-12T03:15:32.134Z,50.877129
2023-01-12T03:16:32.165Z,50.877178
2023-01-12T03:17:32.101Z,50.877174
2023-01-12T03:18:32.084Z,50.877113
2023-01-12T03:19:32.084Z,50.877159
2023-01-12T03:20:32.071Z,50.877178
2023-01-12T03:21:32.058Z,50.877167
2023-01-12T03:22:32.047Z,50.877155
2023-01-12T03:23:32.058Z,50.877213
2023-01-12T03:24:32.028Z,50.877171
2023-01-12T03:25:32.038Z,50.877144
2023-01-12T03:26:32.018Z,50.877171
2023-01-12T03:27:32.015Z,50.877163
2023-01-12T03:28:31.987Z,50.877228
2023-01-12T03:29:31.979Z,50.877178
2023-01-12T03:30:31.967Z,50.877178
2023-01-12T03:31:31.986Z,50.877174
2023-01-12T03:32:31.973Z,50.877167
2023-01-12T03:33:31.952Z,50.877144
2023-01-12T03:34:31.945Z,50.877171
2023-01-12T03:35:31.922Z,50.877171
2023-01-12T03:36:31.913Z,50.877159
2023-01-12T03:37:31.889Z,50.877224
2023-01-12T03:38:31.884Z,50.877182
2023-01-12T03:39:31.901Z,50.877174
2023-01-12T03:40:31.866Z,50.877178
2023-01-12T03:41:31.855Z,50.877171
2023-01-12T03:42:31.840Z,50.877174
2023-01-12T03:43:31.842Z,50.877167
2023-01-12T03:44:31.897Z,50.877151
2023-01-12T03:45:31.826Z,50.877129
2023-01-12T03:46:31.822Z,50.877163
2023-01-12T03:47:31.809Z,50.877159
2023-01-12T03:48:31.789Z,50.877155
2023-01-12T03:49:31.769Z,50.877125
2023-01-12T03:50:31.763Z,50.877113
2023-01-12T03:51:31.757Z,50.877068
2023-01-12T03:52:31.764Z,50.877155
2023-01-12T03:53:31.732Z,50.877117
2023-01-12T03:54:31.731Z,50.877087
2023-01-12T03:55:31.711Z,50.877144
2023-01-12T03:56:31.704Z,50.877182
2023-01-12T03:57:31.722Z,50.877190
2023-01-12T03:58:31.697Z,50.877167
2023-01-12T03:59:31.698Z,50.877151
2023-01-12T04:00:31.661Z,50.877148
2023-01-12T04:01:31.753Z,50.877228
2023-01-12T04:02:31.674Z,50.877228
2023-01-12T04:03:31.705Z,50.877228
2023-01-12T04:04:31.618Z,50.877178
2023-01-12T04:05:31.637Z,50.877102
2023-01-12T04:06:31.605Z,50.877182
2023-01-12T04:07:31.613Z,50.877186
2023-01-12T04:08:31.586Z,50.877144
2023-01-12T04:09:31.587Z,50.877048
2023-01-12T04:10:31.576Z,50.877190
2023-01-12T04:11:31.585Z,50.877224
2023-01-12T04:12:31.540Z,50.877213
2023-01-12T04:13:31.525Z,50.877171
2023-01-12T04:14:31.563Z,50.877056
2023-01-12T04:15:31.541Z,50.877068
2023-01-12T04:16:31.622Z,50.877224
2023-01-12T04:17:31.509Z,50.877251
2023-01-12T04:18:31.485Z,50.877235
2023-01-12T04:19:31.475Z,50.877197
2023-01-12T04:20:31.491Z,50.877213
2023-01-12T04:21:31.474Z,50.877209
2023-01-12T04:22:32.443Z,50.877331
2023-01-12T04:23:31.438Z,50.877453
2023-01-12T04:24:31.422Z,50.877457
2023-01-12T04:25:31.435Z,50.877193
2023-01-12T04:26:31.405Z,50.877174
2023-01-12T04:27:31.392Z,50.877190
2023-01-12T04:28:31.381Z,50.877190
2023-01-12T04:29:31.374Z,50.877167
2023-01-12T04:30:31.383Z,50.877182
2023-01-12T04:31:31.365Z,50.877174
2023-01-12T04:32:31.346Z,50.877186
2023-01-12T04:33:31.331Z,50.877182
2023-01-12T04:34:31.326Z,50.877197
2023-01-12T04:35:31.340Z,50.877190
2023-01-12T04:36:31.307Z,50.877193
2023-01-12T04:37:31.293Z,50.877262
2023-01-12T04:38:31.284Z,50.877197
2023-01-12T04:39:31.277Z,50.877186
2023-01-12T04:40:31.288Z,50.877216
2023-01-12T04:41:31.259Z,50.877201
2023-01-12T04:42:31.254Z,50.877205
2023-01-12T04:43:31.235Z,50.877201
2023-01-12T04:44:31.212Z,50.877209
2023-01-12T04:45:31.294Z,50.877209
2023-01-12T04:46:31.196Z,50.877209
2023-01-12T04:47:31.193Z,50.877167
2023-01-12T04:48:31.196Z,50.877182
2023-01-12T04:49:31.191Z,50.877174
2023-01-12T04:50:31.170Z,50.877163
2023-01-12T04:51:31.151Z,50.877171
2023-01-12T04:52:31.148Z,50.877171
2023-01-12T04:53:31.192Z,50.877201
2023-01-12T04:54:31.151Z,50.877201
2023-01-12T04:55:31.111Z,50.877201
2023-01-12T04:56:31.101Z,50.877190
2023-01-12T04:57:31.092Z,50.877190
2023-01-12T04:58:31.081Z,50.877197
2023-01-12T04:59:31.133Z,50.877193
2023-01-12T05:00:31.068Z,50.877205
2023-01-12T05:01:31.177Z,50.877205
2023-01-12T05:02:31.053Z,50.877197
2023-01-12T05:03:31.042Z,50.877216
2023-01-12T05:04:31.109Z,50.877193
2023-01-12T05:05:31.032Z,50.877186
2023-01-12T05:06:31.014Z,50.877193
2023-01-12T05:07:30.993Z,50.877216
2023-01-12T05:08:31.035Z,50.877209
2023-01-12T05:09:30.977Z,50.877209
2023-01-12T05:10:31.724Z,50.877190
2023-01-12T05:11:30.963Z,50.877193
2023-01-12T05:12:30.974Z,50.877193
2023-01-12T05:13:30.944Z,50.877220
2023-01-12T05:14:30.925Z,50.877201
2023-01-12T05:15:30.915Z,50.877197
2023-01-12T05:16:30.955Z,50.877209
2023-01-12T05:17:30.921Z,50.877213
2023-01-12T05:18:30.915Z,50.877186
2023-01-12T05:19:30.907Z,50.877186
2023-01-12T05:20:30.877Z,50.877193
2023-01-12T05:21:30.867Z,50.877201
2023-01-12T05:22:30.858Z,50.877216
2023-01-12T05:23:30.858Z,50.877186
2023-01-12T05:24:30.830Z,50.877186
2023-01-12T05:25:30.836Z,50.877193
2023-01-12T05:26:30.814Z,50.877201
2023-01-12T05:27:30.791Z,50.877171
2023-01-12T05:28:30.813Z,50.877171
2023-01-12T05:29:30.770Z,50.877178
2023-01-12T05:30:32.039Z,50.877167
2023-01-12T05:31:31.757Z,50.877155
2023-01-12T05:32:30.774Z,50.877136
2023-01-12T05:33:30.741Z,50.877197
2023-01-12T05:34:30.737Z,50.877171
2023-01-12T05:35:30.724Z,50.877171
2023-01-12T05:36:30.707Z,50.877186
2023-01-12T05:37:30.717Z,50.877190
2023-01-12T05:38:30.702Z,50.877178
2023-01-12T05:39:30.679Z,50.877193
2023-01-12T05:40:30.696Z,50.877190
2023-01-12T05:41:30.651Z,50.877190
2023-01-12T05:42:30.689Z,50.877186
2023-01-12T05:43:30.623Z,50.877174
2023-01-12T05:44:30.624Z,50.877193
2023-01-12T05:45:30.633Z,50.877216
2023-01-12T05:46:30.613Z,50.877216
2023-01-12T05:47:30.590Z,50.877205
2023-01-12T05:48:30.585Z,50.877213
2023-01-12T05:49:30.578Z,50.877190
2023-01-12T05:50:30.558Z,50.877193
2023-01-12T05:51:30.583Z,50.877186
2023-01-12T05:52:30.551Z,50.877186
2023-01-12T05:53:30.536Z,50.877197
2023-01-12T05:54:30.522Z,50.877171
2023-01-12T05:55:30.512Z,50.877171
2023-01-12T05:56:30.547Z,50.877174
2023-01-12T05:57:30.507Z,50.877205
2023-01-12T05:58:30.489Z,50.877213
2023-01-12T05:59:30.472Z,50.877266
2023-01-12T06:00:30.471Z,50.877266
2023-01-12T06:01:30.496Z,50.877281
2023-01-12T06:02:30.495Z,50.877300
2023-01-12T06:03:30.431Z,50.877281
2023-01-12T06:04:30.487Z,50.877258
2023-01-12T06:05:30.441Z,50.877270
2023-01-12T06:06:30.402Z,50.877254
2023-01-12T06:07:30.420Z,50.877232
2023-01-12T06:08:30.381Z,50.877274
2023-01-12T06:09:30.372Z,50.877361
2023-01-12T06:10:30.439Z,50.877281
2023-01-12T06:11:30.358Z,50.877247
2023-01-12T06:12:30.345Z,50.877312
2023-01-12T06:13:30.346Z,50.877327
2023-01-12T06:14:30.324Z,50.877331
2023-01-12T06:15:30.301Z,50.877396
2023-01-12T06:16:30.301Z,50.877518
2023-01-12T06:17:30.293Z,50.877518
2023-01-12T06:18:30.301Z,50.877518
2023-01-12T06:19:30.274Z,50.877518
2023-01-12T06:20:30.303Z,50.877518
2023-01-12T06:21:30.250Z,50.877518
2023-01-12T06:22:30.233Z,50.877518
2023-01-12T06:23:35.621Z,50.877518
2023-01-12T06:24:31.221Z,50.877518
2023-01-12T06:25:30.226Z,50.877518
2023-01-12T06:26:30.189Z,50.877048
2023-01-12T06:27:30.178Z,50.877239
2023-01-12T06:28:30.181Z,50.877254
2023-01-12T06:29:31.179Z,50.877251
2023-01-12T06:30:30.156Z,50.877239
2023-01-12T06:31:30.194Z,50.877224
2023-01-12T06:32:32.121Z,50.877216
2023-01-12T06:33:30.150Z,50.877235
2023-01-12T06:34:30.117Z,50.877220
2023-01-12T06:35:30.105Z,50.877197
2023-01-12T06:36:30.097Z,50.877201
2023-01-12T06:37:30.085Z,50.877213
2023-01-12T06:38:30.085Z,50.877209
2023-01-12T06:39:30.063Z,50.877167
2023-01-12T06:40:30.061Z,50.877205
2023-01-12T06:41:30.077Z,50.877186
2023-01-12T06:42:30.039Z,50.877213
2023-01-12T06:43:30.035Z,50.877167
2023-01-12T06:44:30.031Z,50.877182
2023-01-12T06:45:30.020Z,50.877174
2023-01-12T06:46:30.038Z,50.877213
2023-01-12T06:47:29.984Z,50.877186
2023-01-12T06:48:39.089Z,50.877136
2023-01-12T06:49:30.971Z,50.877213
2023-01-12T06:50:29.956Z,50.877251
2023-01-12T06:51:30.033Z,50.877232
2023-01-12T06:52:29.936Z,50.877243
2023-01-12T06:53:29.954Z,50.877251
2023-01-12T06:54:29.910Z,50.877239
2023-01-12T06:55:29.911Z,50.877235
2023-01-12T06:56:29.906Z,50.877239
2023-01-12T06:57:29.888Z,50.877232
2023-01-12T06:58:29.876Z,50.877258
2023-01-12T06:59:29.896Z,50.877224
2023-01-12T07:00:29.856Z,50.877171
2023-01-12T07:01:29.947Z,50.877216
2023-01-12T07:02:29.848Z,50.877205
2023-01-12T07:03:29.821Z,50.877239
2023-01-12T07:04:29.988Z,50.877209
2023-01-12T07:05:29.825Z,50.877186
2023-01-12T07:06:29.795Z,50.877167
2023-01-12T07:07:29.807Z,50.877159
2023-01-12T07:08:29.802Z,50.877125
2023-01-12T07:09:29.759Z,50.877186
2023-01-12T07:10:29.826Z,50.877174
2023-01-12T07:11:29.751Z,50.877182
2023-01-12T07:12:29.732Z,50.877163
2023-01-12T07:13:29.778Z,50.877167
2023-01-12T07:14:29.710Z,50.877197
2023-01-12T07:15:29.742Z,50.877178
2023-01-12T07:16:29.697Z,50.877167
2023-01-12T07:17:29.693Z,50.877197
2023-01-12T07:18:29.696Z,50.877213
2023-01-12T07:19:29.680Z,50.877190
2023-01-12T07:20:29.740Z,50.877174
2023-01-12T07:21:29.643Z,50.877151
2023-01-12T07:22:29.659Z,50.877205
2023-01-12T07:23:29.624Z,50.877171
2023-01-12T07:24:29.618Z,50.877144
2023-01-12T07:25:29.606Z,50.877178
2023-01-12T07:26:29.604Z,50.877167
2023-01-12T07:27:29.608Z,50.877155
2023-01-12T07:28:29.575Z,50.877216
2023-01-12T07:29:29.558Z,50.877163
2023-01-12T07:30:29.615Z,50.877182
2023-01-12T07:31:29.611Z,50.877182
2023-01-12T07:32:29.619Z,50.877182
2023-01-12T07:33:29.539Z,50.877190
2023-01-12T07:34:29.521Z,50.877159
2023-01-12T07:36:01.410Z,50.877140
2023-01-12T07:36:29.493Z,50.877171
2023-01-12T07:37:29.530Z,50.877174
2023-01-12T07:38:29.485Z,50.877167
2023-01-12T07:39:29.473Z,50.877205
2023-01-12T07:40:29.501Z,50.877239
2023-01-12T07:41:29.475Z,50.877201
2023-01-12T07:42:29.450Z,50.877186
2023-01-12T07:43:29.440Z,50.877178
2023-01-12T07:44:29.456Z,50.877151
2023-01-12T07:45:29.403Z,50.877151
2023-01-12T07:46:29.426Z,50.877174
2023-01-12T07:47:29.411Z,50.877167
2023-01-12T07:48:29.377Z,50.877163
2023-01-12T07:49:29.379Z,50.877125
2023-01-12T07:50:29.401Z,50.877136
2023-01-12T07:51:29.357Z,50.877178
2023-01-12T07:52:29.357Z,50.877182
2023-01-12T07:53:29.333Z,50.877190
2023-01-12T07:54:29.340Z,50.877197
2023-01-12T07:55:29.306Z,50.877178
2023-01-12T07:56:29.307Z,50.877201
2023-01-12T07:57:29.309Z,50.877148
2023-01-12T07:58:29.262Z,50.877159
2023-01-12T07:59:29.275Z,50.877197
2023-01-12T08:00:29.266Z,50.877197
2023-01-12T08:01:29.395Z,50.877186
2023-01-12T08:02:29.230Z,50.877216
2023-01-12T08:03:29.225Z,50.877224
2023-01-12T08:04:29.206Z,50.877197
2023-01-12T08:05:29.247Z,50.877193
2023-01-12T08:06:29.191Z,50.877251
2023-01-12T08:07:29.171Z,50.877262
2023-01-12T08:08:29.192Z,50.877258
2023-01-12T08:09:29.172Z,50.877319
2023-01-12T08:10:30.220Z,50.877232
2023-01-12T08:11:29.136Z,50.877251
2023-01-12T08:12:29.140Z,50.877167
2023-01-12T08:13:29.122Z,50.877155
2023-01-12T08:14:29.114Z,50.877193
2023-01-12T08:15:29.128Z,50.877239
2023-01-12T08:16:29.143Z,50.877232
2023-01-12T08:17:29.089Z,50.877235
2023-01-12T08:18:29.083Z,50.877201
2023-01-12T08:19:29.039Z,50.877228
2023-01-12T08:20:30.069Z,50.877247
2023-01-12T08:21:29.052Z,50.877270
2023-01-12T08:22:29.013Z,50.877266
2023-01-12T08:23:29.031Z,50.877213
2023-01-12T08:24:29.004Z,50.877186
2023-01-12T08:25:28.991Z,50.877197
2023-01-12T08:26:29.001Z,50.877209
2023-01-12T08:27:28.985Z,50.877232
2023-01-12T08:28:28.975Z,50.877235
2023-01-12T08:29:28.958Z,50.877235
2023-01-12T08:30:29.109Z,50.877178
2023-01-12T08:31:29.064Z,50.877190
2023-01-12T08:32:28.984Z,50.877247
2023-01-12T08:33:29.163Z,50.877224
2023-01-12T08:34:28.924Z,50.877216
2023-01-12T08:35:28.887Z,50.877213
2023-01-12T08:36:29.020Z,50.877254
2023-01-12T08:37:28.909Z,50.877243
2023-01-12T08:38:28.842Z,50.877258
2023-01-12T08:39:28.964Z,50.877247
2023-01-12T08:40:28.855Z,50.877277
2023-01-12T08:41:28.843Z,50.877247
2023-01-12T08:42:31.578Z,50.877228
2023-01-12T08:43:29.819Z,50.877193
2023-01-12T08:44:28.803Z,50.877186
2023-01-12T08:45:28.808Z,50.877151
2023-01-12T08:46:28.800Z,50.877106
2023-01-12T08:47:28.752Z,50.877106
2023-01-12T08:48:28.775Z,50.877186
2023-01-12T08:49:28.873Z,50.877098
2023-01-12T08:50:28.752Z,50.877060
2023-01-12T08:51:28.724Z,50.877048
2023-01-12T08:52:28.761Z,50.877102
2023-01-12T08:53:28.707Z,50.877136
2023-01-12T08:54:28.712Z,50.877056
2023-01-12T08:55:28.769Z,50.877205
2023-01-12T08:56:28.781Z,50.877171
2023-01-12T08:57:28.772Z,50.877113
2023-01-12T08:58:28.669Z,50.877132
2023-01-12T08:59:28.645Z,50.877163
2023-01-12T09:00:28.787Z,50.877239
2023-01-12T09:01:28.696Z,50.877197
2023-01-12T09:02:28.625Z,50.877125
2023-01-12T09:03:28.621Z,50.877197
2023-01-12T09:04:28.651Z,50.877193
2023-01-12T09:05:28.590Z,50.877205
2023-01-12T09:06:28.560Z,50.877174
2023-01-12T09:07:28.588Z,50.877121
2023-01-12T09:08:28.552Z,50.877132
2023-01-12T09:09:28.714Z,50.877201
2023-01-12T09:10:28.520Z,50.877205
2023-01-12T09:11:28.561Z,50.877193
2023-01-12T09:12:28.538Z,50.877228
2023-01-12T09:13:28.869Z,50.877247
2023-01-12T09:14:28.516Z,50.877232
2023-01-12T09:15:28.480Z,50.877163
2023-01-12T09:16:28.518Z,50.877102
2023-01-12T09:17:28.484Z,50.877155
2023-01-12T09:18:28.454Z,50.877193
2023-01-12T09:19:28.468Z,50.877232
2023-01-12T09:20:28.576Z,50.877193
2023-01-12T09:21:28.453Z,50.877182
2023-01-12T09:22:28.431Z,50.877197
2023-01-12T09:23:28.450Z,50.877190
2023-01-12T09:24:28.402Z,50.877205
2023-01-12T09:25:28.381Z,50.877209
2023-01-12T09:26:29.398Z,50.877190
2023-01-12T09:27:28.394Z,50.877193
2023-01-12T09:28:28.342Z,50.877193
2023-01-12T09:29:29.347Z,50.877205
2023-01-12T09:30:28.330Z,50.877159
2023-01-12T09:31:28.378Z,50.877163
2023-01-12T09:32:36.171Z,50.877182
2023-01-12T09:33:30.295Z,50.877174
2023-01-12T09:34:28.456Z,50.877193
2023-01-12T09:35:28.798Z,50.877174
2023-01-12T09:36:28.288Z,50.877148
2023-01-12T09:37:28.317Z,50.877129
2023-01-12T09:38:28.251Z,50.877125
2023-01-12T09:39:28.758Z,50.877151
2023-01-12T09:40:29.252Z,50.877144
2023-01-12T09:41:28.233Z,50.877159
2023-01-12T09:42:28.202Z,50.877136
2023-01-12T09:43:28.202Z,50.877129
2023-01-12T09:44:28.188Z,50.877125
2023-01-12T09:45:28.247Z,50.877140
2023-01-12T09:46:28.187Z,50.877159
2023-01-12T09:47:28.168Z,50.877167
2023-01-12T09:48:28.151Z,50.877178
2023-01-12T09:49:28.166Z,50.877155
2023-01-12T09:50:28.140Z,50.877167
2023-01-12T09:51:28.112Z,50.877171
2023-01-12T09:52:28.118Z,50.877182
2023-01-12T09:53:28.110Z,50.877190
2023-01-12T09:54:28.092Z,50.877178
2023-01-12T09:55:28.132Z,50.877174
2023-01-12T09:56:28.277Z,50.877167
2023-01-12T09:57:29.127Z,50.877163
2023-01-12T09:58:29.060Z,50.877167
2023-01-12T09:59:28.079Z,50.877174
2023-01-12T10:00:28.025Z,50.877178
2023-01-12T10:01:30.024Z,50.877186
2023-01-12T10:02:29.074Z,50.877197
2023-01-12T10:03:28.077Z,50.877182
2023-01-12T10:04:28.178Z,50.877167
2023-01-12T10:05:38.545Z,50.877178
2023-01-12T10:06:28.999Z,50.877171
2023-01-12T10:07:27.972Z,50.877167
2023-01-12T10:08:27.951Z,50.877140
2023-01-12T10:09:27.955Z,50.877155
2023-01-12T10:10:27.942Z,50.877174
2023-01-12T10:11:27.953Z,50.877163
2023-01-12T10:12:27.910Z,50.877167
2023-01-12T10:13:27.922Z,50.877155
2023-01-12T10:14:27.880Z,50.877174
2023-01-12T10:15:27.880Z,50.877171
2023-01-12T10:16:27.915Z,50.877186
2023-01-12T10:17:29.932Z,50.877190
2023-01-12T10:18:27.857Z,50.877174
2023-01-12T10:19:27.873Z,50.877182
2023-01-12T10:20:27.843Z,50.877186
2023-01-12T10:21:27.824Z,50.877174
2023-01-12T10:22:27.844Z,50.877174
2023-01-12T10:23:27.798Z,50.877140
2023-01-12T10:24:27.800Z,50.877155
2023-01-12T10:25:27.783Z,50.877171
2023-01-12T10:26:27.798Z,50.877190
2023-01-12T10:27:27.783Z,50.877197
2023-01-12T10:28:27.762Z,50.877197
2023-01-12T10:29:27.738Z,50.877201
2023-01-12T10:30:27.733Z,50.877193
2023-01-12T10:31:27.808Z,50.877178
2023-01-12T10:32:31.366Z,50.877174
2023-01-12T10:33:28.762Z,50.877136
2023-01-12T10:34:27.690Z,50.877117
2023-01-12T10:35:27.683Z,50.877140
2023-01-12T10:36:27.669Z,50.877167
2023-01-12T10:37:27.667Z,50.877171
2023-01-12T10:38:27.663Z,50.877209
2023-01-12T10:39:27.626Z,50.877201
2023-01-12T10:40:27.694Z,50.877193
2023-01-12T10:41:27.624Z,50.877174
2023-01-12T10:42:27.605Z,50.877171
2023-01-12T10:43:27.618Z,50.877186
2023-01-12T10:44:27.590Z,50.877174
2023-01-12T10:45:27.580Z,50.877171
2023-01-12T10:46:27.591Z,50.877159
2023-01-12T10:47:27.560Z,50.877182
2023-01-12T10:48:27.565Z,50.877193
2023-01-12T10:49:27.545Z,50.877159
2023-01-12T10:50:27.549Z,50.877178
2023-01-12T10:51:27.518Z,50.877182
2023-01-12T10:52:27.517Z,50.877171
2023-01-12T10:53:27.503Z,50.877178
2023-01-12T10:54:27.500Z,50.877197
2023-01-12T10:55:27.499Z,50.877213
2023-01-12T10:56:27.461Z,50.877186
2023-01-12T10:57:27.454Z,50.877186
2023-01-12T10:58:27.460Z,50.877178
2023-01-12T10:59:27.445Z,50.877182
2023-01-12T11:00:27.447Z,50.877155
2023-01-12T11:01:27.549Z,50.877197
2023-01-12T11:02:27.503Z,50.877174
2023-01-12T11:03:27.407Z,50.877151
2023-01-12T11:04:27.390Z,50.877167
2023-01-12T11:05:27.388Z,50.877167
2023-01-12T11:06:27.413Z,50.877132
2023-01-12T11:07:27.364Z,50.877144
2023-01-12T11:08:27.349Z,50.877155
2023-01-12T11:09:27.335Z,50.877163
2023-01-12T11:10:27.377Z,50.877178
2023-01-12T11:11:27.329Z,50.877193
2023-01-12T11:12:29.577Z,50.877190
2023-01-12T11:13:28.308Z,50.877186
2023-01-12T11:14:27.317Z,50.877186
2023-01-12T11:15:27.285Z,50.877182
2023-01-12T11:16:27.287Z,50.877213
2023-01-12T11:17:27.253Z,50.877201
2023-01-12T11:18:27.252Z,50.877190
2023-01-12T11:19:27.262Z,50.877186
2023-01-12T11:20:27.217Z,50.877182
2023-01-12T11:21:27.221Z,50.877186
2023-01-12T11:22:27.209Z,50.877182
2023-01-12T11:23:27.199Z,50.877171
2023-01-12T11:24:27.203Z,50.877167
2023-01-12T11:25:27.176Z,50.877159
2023-01-12T11:26:27.161Z,50.877163
2023-01-12T11:27:27.143Z,50.877163
2023-01-12T11:28:27.150Z,50.877167
2023-01-12T11:29:27.144Z,50.877171